Time;durP1;ratioP1;P1;durP2;ratioP2;P2;SDS_P1;SDS_P2;PMS_P1;PMS_P2;Temp;Humidity;BMP_temperature;BMP_pressure;BME280_temperature;BME280_humidity;BME280_pressure;Samples;Min_cycle;Max_cycle;Signal;HPM_P1;HPM_P2
2022/03/07 00:02:11;;;;;;;7.60;4.70;;;3.70;99.90;;;;;;4965459;28;20229;-76
2022/03/07 00:04:37;;;;;;;7.73;4.73;;;3.70;99.90;;;;;;4954448;28;20189;-78
2022/03/07 00:07:03;;;;;;;7.00;4.30;;;3.70;99.90;;;;;;4954004;28;20219;-77
2022/03/07 00:09:29;;;;;;;10.37;4.90;;;3.70;99.90;;;;;;4970074;28;20673;-78
2022/03/07 00:11:55;;;;;;;6.80;4.47;;;3.70;99.90;;;;;;4939758;28;20196;-78
2022/03/07 00:14:21;;;;;;;7.80;4.43;;;3.60;99.90;;;;;;4970249;28;20196;-77
2022/03/07 00:16:47;;;;;;;7.80;4.40;;;3.60;99.90;;;;;;4956641;28;20189;-77
2022/03/07 00:19:13;;;;;;;11.23;4.70;;;3.60;99.90;;;;;;4973896;28;20215;-78
2022/03/07 00:21:39;;;;;;;9.33;4.70;;;3.50;99.90;;;;;;4970486;28;20223;-78
2022/03/07 00:24:07;;;;;;;8.13;4.37;;;3.50;99.90;;;;;;4955375;28;20188;-77
2022/03/07 00:26:34;;;;;;;9.00;4.93;;;3.50;99.90;;;;;;4967511;28;20178;-77
2022/03/07 00:28:59;;;;;;;12.23;4.87;;;3.50;99.90;;;;;;4955610;28;20204;-78
2022/03/07 00:31:26;;;;;;;6.53;4.37;;;3.50;99.90;;;;;;4988900;28;20207;-77
2022/03/07 00:33:52;;;;;;;9.57;4.50;;;3.40;99.90;;;;;;4957439;28;20721;-78
2022/03/07 00:36:21;;;;;;;9.00;4.50;;;3.40;99.90;;;;;;4986243;28;20225;-77
2022/03/07 00:38:50;;;;;;;7.30;4.70;;;3.30;99.90;;;;;;4954391;28;20216;-77
2022/03/07 00:41:15;;;;;;;9.07;5.00;;;3.30;99.90;;;;;;4953157;28;20196;-77
2022/03/07 00:43:41;;;;;;;6.83;4.17;;;3.30;99.90;;;;;;4955524;28;20185;-77
2022/03/07 00:46:07;;;;;;;8.10;4.30;;;3.30;99.90;;;;;;4972671;28;20231;-77
2022/03/07 00:48:33;;;;;;;9.97;4.80;;;3.20;99.90;;;;;;4956636;28;20196;-77
2022/03/07 00:51:00;;;;;;;10.50;4.47;;;3.20;99.90;;;;;;4943071;28;20565;-78
2022/03/07 00:53:26;;;;;;;9.53;4.67;;;3.20;99.90;;;;;;4941936;28;20247;-77
2022/03/07 00:55:54;;;;;;;7.00;4.37;;;3.20;99.90;;;;;;4970668;28;20188;-77
2022/03/07 00:58:21;;;;;;;8.13;4.40;;;3.20;99.90;;;;;;4987662;28;20224;-77
2022/03/07 01:00:48;;;;;;;13.73;4.60;;;3.20;99.90;;;;;;4955373;28;20185;-76
2022/03/07 01:03:14;;;;;;;7.87;4.03;;;3.20;99.90;;;;;;4986234;28;20185;-78
2022/03/07 01:05:41;;;;;;;11.40;4.80;;;3.20;99.90;;;;;;4971103;28;20560;-77
2022/03/07 01:08:07;;;;;;;9.57;4.87;;;3.20;99.90;;;;;;4968490;28;20592;-78
2022/03/07 01:10:34;;;;;;;7.93;4.70;;;3.10;99.90;;;;;;4957635;28;20199;-77
2022/03/07 01:13:00;;;;;;;9.93;4.30;;;3.10;99.90;;;;;;4950171;28;20211;-77
2022/03/07 01:15:26;;;;;;;9.13;4.20;;;3.10;99.90;;;;;;4957084;28;20181;-77
2022/03/07 01:17:54;;;;;;;7.80;4.83;;;3.10;99.90;;;;;;4968556;28;20209;-78
2022/03/07 01:20:21;;;;;;;7.63;4.33;;;3.10;99.90;;;;;;4955447;28;20634;-78
2022/03/07 01:22:47;;;;;;;7.90;4.07;;;3.10;99.90;;;;;;4952434;28;20197;-77
2022/03/07 01:25:13;;;;;;;10.17;4.13;;;3.00;99.90;;;;;;4980654;28;20192;-77
2022/03/07 01:27:39;;;;;;;5.93;4.00;;;3.10;99.90;;;;;;4968139;28;20207;-77
2022/03/07 01:30:06;;;;;;;13.07;4.63;;;3.10;99.90;;;;;;4953206;28;20215;-78
2022/03/07 01:32:33;;;;;;;7.40;4.40;;;3.00;99.90;;;;;;4956378;28;20189;-77
2022/03/07 01:35:00;;;;;;;13.03;4.53;;;2.90;99.90;;;;;;4969462;28;20199;-78
2022/03/07 01:37:26;;;;;;;7.73;4.30;;;2.90;99.90;;;;;;4953290;28;20180;-77
2022/03/07 01:39:51;;;;;;;8.13;4.47;;;2.90;99.90;;;;;;4966953;28;20216;-77
2022/03/07 01:42:17;;;;;;;7.63;4.63;;;2.90;99.90;;;;;;4950766;28;20540;-77
2022/03/07 01:44:43;;;;;;;7.27;4.43;;;2.80;99.90;;;;;;4952556;28;20211;-78
2022/03/07 01:47:08;;;;;;;11.73;4.40;;;2.80;99.90;;;;;;4969683;28;20302;-78
2022/03/07 01:49:35;;;;;;;7.43;4.50;;;2.80;99.90;;;;;;4954674;28;20714;-76
2022/03/07 01:52:01;;;;;;;5.30;4.30;;;2.80;99.90;;;;;;4983163;28;21458;-78
2022/03/07 01:54:26;;;;;;;8.70;5.03;;;2.80;99.90;;;;;;4959868;28;20213;-77
2022/03/07 01:56:53;;;;;;;7.73;4.47;;;2.80;99.90;;;;;;4952342;28;21067;-78
2022/03/07 01:59:28;;;;;;;11.30;4.37;;;2.80;99.90;;;;;;4940387;28;20219;-77
2022/03/07 02:01:55;;;;;;;8.30;4.40;;;2.90;99.90;;;;;;4968705;28;20189;-78
2022/03/07 02:04:22;;;;;;;10.67;4.80;;;2.80;99.90;;;;;;4971743;28;20494;-76
2022/03/07 02:06:48;;;;;;;6.33;3.97;;;2.90;99.90;;;;;;4954316;28;20205;-78
2022/03/07 02:09:15;;;;;;;9.10;4.80;;;2.90;99.90;;;;;;4941628;28;20200;-78
2022/03/07 02:11:41;;;;;;;7.23;4.40;;;2.90;99.90;;;;;;4971401;28;20224;-77
2022/03/07 02:14:12;;;;;;;5.63;4.00;;;2.90;99.90;;;;;;4969552;28;20729;-78
2022/03/07 02:16:38;;;;;;;10.63;4.90;;;2.90;99.90;;;;;;4967252;28;20192;-77
2022/03/07 02:19:04;;;;;;;7.07;3.93;;;2.80;99.90;;;;;;4970973;28;20231;-78
2022/03/07 02:21:34;;;;;;;7.37;4.60;;;2.80;99.90;;;;;;4923756;28;20217;-77
2022/03/07 02:24:00;;;;;;;9.53;4.90;;;2.80;99.90;;;;;;4968613;28;20180;-77
2022/03/07 02:26:26;;;;;;;9.57;4.70;;;2.70;99.90;;;;;;4986203;28;20193;-75
2022/03/07 02:28:52;;;;;;;10.07;4.40;;;2.70;99.90;;;;;;4969741;28;20255;-77
2022/03/07 02:31:19;;;;;;;8.57;4.97;;;2.70;99.90;;;;;;4957178;28;20208;-78
2022/03/07 02:33:45;;;;;;;10.23;4.40;;;2.70;99.90;;;;;;4958176;28;20215;-78
2022/03/07 02:36:11;;;;;;;7.37;4.43;;;2.70;99.90;;;;;;4957774;28;20201;-77
2022/03/07 02:38:36;;;;;;;8.10;5.00;;;2.60;99.90;;;;;;4937759;28;20276;-76
2022/03/07 02:41:02;;;;;;;11.97;4.50;;;2.60;99.90;;;;;;4989586;28;20180;-77
2022/03/07 02:43:28;;;;;;;7.07;5.00;;;2.60;99.90;;;;;;4957205;28;20211;-76
2022/03/07 02:45:55;;;;;;;10.17;4.87;;;2.60;99.90;;;;;;4973043;28;20196;-78
2022/03/07 02:48:21;;;;;;;7.90;5.00;;;2.60;99.90;;;;;;4942012;28;20215;-78
2022/03/07 02:50:48;;;;;;;9.70;4.77;;;2.60;99.90;;;;;;4970795;28;20192;-77
2022/03/07 02:53:14;;;;;;;7.90;4.60;;;2.70;99.90;;;;;;4956665;28;20204;-78
2022/03/07 02:55:40;;;;;;;8.10;4.90;;;2.60;99.90;;;;;;4973347;28;20263;-78
2022/03/07 02:58:06;;;;;;;5.83;4.47;;;2.60;99.90;;;;;;4972117;28;21185;-77
2022/03/07 03:00:32;;;;;;;8.00;4.67;;;2.60;99.90;;;;;;4956569;28;20219;-78
2022/03/07 03:02:58;;;;;;;8.40;4.63;;;2.60;99.90;;;;;;4968886;28;20205;-76
2022/03/07 03:05:24;;;;;;;7.67;4.70;;;2.70;99.90;;;;;;4986340;28;20754;-77
2022/03/07 03:07:51;;;;;;;8.37;4.87;;;2.50;99.90;;;;;;4971872;28;20185;-76
2022/03/07 03:10:17;;;;;;;7.47;4.70;;;2.50;99.90;;;;;;4947727;28;20275;-77
2022/03/07 03:12:44;;;;;;;8.70;4.90;;;2.50;99.90;;;;;;4960086;28;20644;-80
2022/03/07 03:15:10;;;;;;;9.37;4.63;;;2.50;99.90;;;;;;4959503;28;20753;-79
2022/03/07 03:17:41;;;;;;;7.03;5.27;;;2.50;99.90;;;;;;4959948;28;20230;-79
2022/03/07 03:20:12;;;;;;;9.67;5.03;;;2.40;99.90;;;;;;4976305;28;20696;-78
2022/03/07 03:22:39;;;;;;;9.40;5.37;;;2.40;99.90;;;;;;4957411;28;20198;-78
2022/03/07 03:25:06;;;;;;;10.47;5.17;;;2.40;99.90;;;;;;4959182;28;20199;-78
2022/03/07 03:27:31;;;;;;;9.27;5.77;;;2.40;99.90;;;;;;4958206;28;20220;-79
2022/03/07 03:29:57;;;;;;;9.30;5.37;;;2.40;99.90;;;;;;4929984;28;20200;-79
2022/03/07 03:32:24;;;;;;;8.77;5.00;;;2.40;99.90;;;;;;4957501;28;20235;-78
2022/03/07 03:34:49;;;;;;;10.13;5.50;;;2.40;99.90;;;;;;4945877;28;20189;-79
2022/03/07 03:37:16;;;;;;;9.80;5.47;;;2.30;99.90;;;;;;4944046;28;20491;-79
2022/03/07 03:39:42;;;;;;;9.20;5.63;;;2.30;99.90;;;;;;4977207;28;20280;-79
2022/03/07 03:42:08;;;;;;;10.77;5.23;;;2.30;99.90;;;;;;4942376;28;20212;-79
2022/03/07 03:44:33;;;;;;;9.87;5.37;;;2.30;99.90;;;;;;4946612;28;20214;-78
2022/03/07 03:46:59;;;;;;;12.50;5.90;;;2.20;99.90;;;;;;4942459;28;20247;-78
2022/03/07 03:49:25;;;;;;;8.10;5.63;;;2.20;99.90;;;;;;4957579;28;20197;-79
2022/03/07 03:51:50;;;;;;;9.53;5.63;;;2.10;99.90;;;;;;4958682;28;20211;-78
2022/03/07 03:54:16;;;;;;;10.17;5.70;;;2.10;99.90;;;;;;4960696;28;20188;-80
2022/03/07 03:56:42;;;;;;;17.40;5.63;;;2.10;99.90;;;;;;4977449;28;20232;-79
2022/03/07 03:59:07;;;;;;;10.40;5.33;;;2.10;99.90;;;;;;4960544;28;20581;-79
2022/03/07 04:01:33;;;;;;;12.20;5.87;;;2.00;99.90;;;;;;4979665;28;20193;-79
2022/03/07 04:03:59;;;;;;;10.17;5.77;;;2.00;99.90;;;;;;4958421;28;20668;-79
2022/03/07 04:06:24;;;;;;;8.57;5.13;;;2.00;99.90;;;;;;4942992;28;20723;-79
2022/03/07 04:09:15;;;;;;;9.13;5.83;;;2.00;99.90;;;;;;4959400;28;20203;-79
2022/03/07 04:11:41;;;;;;;9.87;5.97;;;2.00;99.90;;;;;;4976485;28;20253;-78
2022/03/07 04:14:06;;;;;;;8.97;5.47;;;2.00;99.90;;;;;;4959780;28;20825;-78
2022/03/07 04:16:32;;;;;;;8.37;6.23;;;2.00;99.90;;;;;;4942785;28;20203;-78
2022/03/07 04:18:58;;;;;;;13.37;5.87;;;2.00;99.90;;;;;;4938928;28;20256;-79
2022/03/07 04:21:26;;;;;;;10.87;5.63;;;2.00;99.90;;;;;;4941933;28;20193;-80
2022/03/07 04:23:53;;;;;;;8.30;5.53;;;1.90;99.90;;;;;;4956620;28;20197;-78
2022/03/07 04:26:19;;;;;;;13.07;6.07;;;2.00;99.90;;;;;;4957444;28;20228;-78
2022/03/07 04:28:44;;;;;;;7.87;5.50;;;1.90;99.90;;;;;;4926676;28;20913;-77
2022/03/07 04:31:11;;;;;;;7.97;5.70;;;1.90;99.90;;;;;;4971614;28;20299;-78
2022/03/07 04:33:37;;;;;;;9.37;5.80;;;1.90;99.90;;;;;;4960613;28;20231;-79
2022/03/07 04:36:02;;;;;;;8.27;5.50;;;1.90;99.90;;;;;;4957387;28;20702;-78
2022/03/07 04:38:28;;;;;;;9.17;5.90;;;1.90;99.90;;;;;;4957579;28;20197;-79
2022/03/07 04:40:54;;;;;;;10.87;5.97;;;1.90;99.90;;;;;;4939630;28;20257;-79
2022/03/07 04:43:21;;;;;;;12.50;6.77;;;1.90;99.90;;;;;;4974607;28;20197;-79
2022/03/07 04:45:46;;;;;;;10.57;5.90;;;1.90;99.90;;;;;;4940911;28;20193;-78
2022/03/07 04:48:14;;;;;;;9.93;6.63;;;1.80;99.90;;;;;;4955496;28;20568;-79
2022/03/07 04:50:40;;;;;;;13.43;6.37;;;1.90;99.90;;;;;;4959352;28;20196;-79
2022/03/07 04:53:06;;;;;;;8.73;6.50;;;1.80;99.90;;;;;;4947848;28;20209;-77
2022/03/07 04:55:32;;;;;;;9.60;6.20;;;1.80;99.90;;;;;;4955804;28;20193;-78
2022/03/07 04:57:58;;;;;;;12.20;7.40;;;1.80;99.90;;;;;;4973379;28;21195;-79
2022/03/07 05:00:23;;;;;;;15.47;7.23;;;1.80;99.90;;;;;;4911543;28;20211;-78
2022/03/07 05:02:49;;;;;;;10.80;6.83;;;1.80;99.90;;;;;;4924330;28;20757;-79
2022/03/07 05:05:15;;;;;;;9.07;6.43;;;1.80;99.90;;;;;;4941225;28;20201;-78
2022/03/07 05:07:40;;;;;;;9.27;5.83;;;1.70;99.90;;;;;;4938011;28;20219;-78
2022/03/07 05:10:06;;;;;;;15.93;6.80;;;1.70;99.90;;;;;;4941297;28;20314;-79
2022/03/07 05:12:32;;;;;;;10.73;7.00;;;1.70;99.90;;;;;;4974421;28;20596;-78
2022/03/07 05:14:58;;;;;;;11.87;7.07;;;1.80;99.90;;;;;;4955486;28;20193;-79
2022/03/07 05:17:24;;;;;;;12.83;6.87;;;1.70;99.90;;;;;;4925244;28;20192;-78
2022/03/07 05:19:49;;;;;;;12.33;6.87;;;1.70;99.90;;;;;;4926650;28;20224;-79
2022/03/07 05:22:17;;;;;;;17.07;6.73;;;1.70;99.90;;;;;;4941551;28;20805;-78
2022/03/07 05:24:43;;;;;;;12.80;7.03;;;1.70;99.90;;;;;;4977785;28;20781;-79
2022/03/07 05:27:08;;;;;;;12.67;6.67;;;1.70;99.90;;;;;;4955987;28;20239;-80
2022/03/07 05:29:36;;;;;;;14.77;7.37;;;1.60;99.90;;;;;;4976184;28;20203;-79
2022/03/07 05:32:02;;;;;;;13.60;7.10;;;1.60;99.90;;;;;;4944771;28;20627;-79
2022/03/07 05:34:28;;;;;;;10.87;6.47;;;1.60;99.90;;;;;;4975658;28;20218;-78
2022/03/07 05:36:53;;;;;;;11.43;6.50;;;1.60;99.90;;;;;;4940218;28;20244;-80
2022/03/07 05:39:19;;;;;;;12.37;6.20;;;1.60;99.90;;;;;;4928821;28;20750;-79
2022/03/07 05:41:45;;;;;;;12.93;6.70;;;1.70;99.90;;;;;;4943382;28;20275;-77
2022/03/07 05:44:10;;;;;;;10.03;6.70;;;1.60;99.90;;;;;;4943057;28;20212;-79
2022/03/07 05:46:36;;;;;;;10.10;7.00;;;1.60;99.90;;;;;;4955755;28;20268;-79
2022/03/07 05:49:02;;;;;;;15.27;6.93;;;1.60;99.90;;;;;;4941976;28;20325;-79
2022/03/07 05:51:28;;;;;;;14.13;7.30;;;1.60;99.90;;;;;;4955376;28;20676;-78
2022/03/07 05:53:54;;;;;;;10.37;6.67;;;1.60;99.90;;;;;;4959705;28;20247;-78
2022/03/07 05:56:21;;;;;;;16.57;7.07;;;1.60;99.90;;;;;;4972861;28;20820;-79
2022/03/07 05:58:47;;;;;;;13.20;7.03;;;1.60;99.90;;;;;;4943977;28;20741;-79
2022/03/07 06:01:13;;;;;;;11.60;7.00;;;1.60;99.90;;;;;;4958412;28;20311;-79
2022/03/07 06:03:39;;;;;;;15.30;7.80;;;1.60;99.90;;;;;;4931458;28;20188;-78
2022/03/07 06:06:05;;;;;;;13.33;7.50;;;1.60;99.90;;;;;;4962395;28;20199;-78
2022/03/07 06:08:30;;;;;;;14.87;7.73;;;1.60;99.90;;;;;;4956835;28;20564;-78
2022/03/07 06:10:56;;;;;;;13.97;7.83;;;1.60;99.90;;;;;;4931037;28;20212;-79
2022/03/07 06:13:22;;;;;;;15.67;7.80;;;1.60;99.90;;;;;;4961179;28;20317;-80
2022/03/07 06:15:47;;;;;;;13.10;7.50;;;1.50;99.90;;;;;;4929702;28;20193;-78
2022/03/07 06:18:13;;;;;;;13.53;7.27;;;1.60;99.90;;;;;;4958567;28;20538;-78
2022/03/07 06:20:39;;;;;;;15.90;7.40;;;1.50;99.90;;;;;;4944836;28;20216;-77
2022/03/07 06:23:06;;;;;;;16.50;7.30;;;1.50;99.90;;;;;;4957125;28;20275;-79
2022/03/07 06:25:33;;;;;;;17.27;7.43;;;1.50;99.90;;;;;;4961976;28;20631;-79
2022/03/07 06:28:00;;;;;;;16.97;8.13;;;1.50;99.90;;;;;;4977154;28;20235;-78
2022/03/07 06:30:27;;;;;;;16.93;8.80;;;1.50;99.90;;;;;;4944649;28;20217;-80
2022/03/07 06:32:53;;;;;;;15.90;8.20;;;1.60;99.90;;;;;;4962408;28;20580;-81
2022/03/07 06:35:18;;;;;;;14.80;8.07;;;1.60;99.90;;;;;;4917796;28;20192;-80
2022/03/07 06:37:52;;;;;;;15.87;9.67;;;1.60;99.90;;;;;;4959475;28;20225;-78
2022/03/07 06:40:19;;;;;;;14.20;8.37;;;1.60;99.90;;;;;;4959970;28;20308;-81
2022/03/07 06:42:46;;;;;;;14.63;8.07;;;1.60;99.90;;;;;;4963668;28;20323;-80
2022/03/07 06:45:13;;;;;;;15.00;8.70;;;1.70;99.90;;;;;;4975517;28;20208;-80
2022/03/07 06:47:44;;;;;;;12.63;7.57;;;1.70;99.90;;;;;;4931565;28;20208;-80
2022/03/07 06:50:11;;;;;;;14.43;8.10;;;1.80;99.90;;;;;;4959898;28;20180;-80
2022/03/07 06:52:37;;;;;;;17.97;9.93;;;1.80;99.90;;;;;;4963072;28;20232;-81
2022/03/07 06:55:03;;;;;;;20.67;10.00;;;1.90;99.90;;;;;;4942380;28;20239;-79
2022/03/07 06:57:29;;;;;;;15.97;8.80;;;2.00;99.90;;;;;;4980164;28;20233;-80
2022/03/07 06:59:55;;;;;;;15.93;9.53;;;2.00;99.90;;;;;;4978170;28;20744;-81
2022/03/07 07:02:20;;;;;;;19.03;8.83;;;2.00;99.90;;;;;;4963343;28;20204;-80
2022/03/07 07:04:46;;;;;;;18.67;9.17;;;2.00;99.90;;;;;;4945448;28;20189;-78
2022/03/07 07:07:12;;;;;;;14.40;8.93;;;2.00;99.90;;;;;;4946106;28;20307;-79
2022/03/07 07:09:39;;;;;;;15.90;8.87;;;2.00;99.90;;;;;;4927732;28;20192;-80
2022/03/07 07:12:05;;;;;;;14.90;8.87;;;2.00;99.90;;;;;;4956782;28;20290;-80
2022/03/07 07:14:31;;;;;;;13.77;8.40;;;2.00;99.90;;;;;;4931272;28;20209;-79
2022/03/07 07:16:56;;;;;;;16.37;8.90;;;2.10;99.90;;;;;;4927891;28;20211;-81
2022/03/07 07:19:22;;;;;;;15.93;9.20;;;2.10;99.90;;;;;;4946689;28;20217;-80
2022/03/07 07:21:48;;;;;;;14.43;8.27;;;2.10;99.90;;;;;;4945592;28;20342;-78
2022/03/07 07:24:13;;;;;;;20.13;10.67;;;2.20;99.90;;;;;;4948444;28;20556;-81
2022/03/07 07:26:39;;;;;;;20.13;9.13;;;2.20;99.90;;;;;;4930711;28;20192;-80
2022/03/07 07:29:06;;;;;;;19.07;9.80;;;2.20;99.90;;;;;;4957631;28;20283;-80
2022/03/07 07:31:32;;;;;;;16.40;9.73;;;2.30;99.90;;;;;;4945211;28;20234;-80
2022/03/07 07:33:57;;;;;;;17.87;9.10;;;2.30;99.90;;;;;;4942786;28;20264;-80
2022/03/07 07:36:23;;;;;;;17.10;9.53;;;2.30;99.90;;;;;;4953278;28;20197;-78
2022/03/07 07:38:49;;;;;;;19.03;10.87;;;2.30;99.90;;;;;;4944203;28;20204;-79
2022/03/07 07:41:14;;;;;;;15.67;9.37;;;2.40;99.90;;;;;;4962436;28;20196;-78
2022/03/07 07:43:40;;;;;;;21.57;9.13;;;2.40;99.90;;;;;;4980506;28;20204;-80
2022/03/07 07:46:06;;;;;;;17.27;8.87;;;2.40;99.90;;;;;;4950742;28;20236;-80
2022/03/07 07:48:31;;;;;;;15.93;8.67;;;2.40;99.90;;;;;;4928184;28;20660;-81
2022/03/07 07:50:57;;;;;;;14.87;9.23;;;2.50;99.90;;;;;;4977783;28;20196;-81
2022/03/07 07:53:23;;;;;;;13.97;8.73;;;2.40;99.90;;;;;;4962031;28;20211;-80
2022/03/07 07:55:48;;;;;;;17.70;9.47;;;2.40;99.90;;;;;;4965808;28;20197;-81
2022/03/07 07:58:14;;;;;;;21.33;9.20;;;2.50;99.90;;;;;;4962283;28;20255;-81
2022/03/07 08:00:40;;;;;;;18.67;9.80;;;2.50;99.90;;;;;;4944948;28;20219;-79
2022/03/07 08:03:06;;;;;;;14.87;9.57;;;2.60;99.90;;;;;;4946137;28;20193;-80
2022/03/07 08:05:31;;;;;;;14.90;8.63;;;2.60;99.90;;;;;;4943090;28;20200;-81
2022/03/07 08:07:57;;;;;;;18.97;9.47;;;2.60;99.90;;;;;;4959704;28;20194;-80
2022/03/07 08:10:23;;;;;;;17.40;8.47;;;2.70;99.90;;;;;;4944509;28;20225;-80
2022/03/07 08:12:49;;;;;;;16.47;9.57;;;2.80;99.90;;;;;;4931152;28;20212;-78
2022/03/07 08:15:14;;;;;;;18.63;9.37;;;2.80;99.90;;;;;;4960343;28;20220;-80
2022/03/07 08:17:50;;;;;;;16.80;9.57;;;2.90;99.90;;;;;;4961952;28;20204;-80
2022/03/07 08:20:23;;;;;;;15.63;9.63;;;2.90;99.90;;;;;;4930499;28;20292;-79
2022/03/07 08:22:49;;;;;;;17.57;9.53;;;3.00;99.90;;;;;;4942561;28;20212;-80
2022/03/07 08:25:16;;;;;;;15.47;9.37;;;3.10;99.90;;;;;;4930405;28;20236;-79
2022/03/07 08:27:42;;;;;;;17.00;8.90;;;3.10;99.90;;;;;;4929190;28;20193;-79
2022/03/07 08:30:11;;;;;;;18.33;10.17;;;3.10;99.90;;;;;;4959007;28;20197;-79
2022/03/07 08:32:38;;;;;;;12.97;8.83;;;3.10;99.90;;;;;;4948166;28;20193;-80
2022/03/07 08:35:05;;;;;;;18.27;9.50;;;3.20;99.90;;;;;;4958496;28;20784;-80
2022/03/07 08:37:31;;;;;;;13.07;8.43;;;3.20;99.90;;;;;;4961082;28;20204;-80
2022/03/07 08:39:57;;;;;;;14.33;8.13;;;3.30;99.90;;;;;;4962910;28;20299;-80
2022/03/07 08:42:23;;;;;;;13.90;8.83;;;3.40;99.90;;;;;;4961301;28;20629;-80
2022/03/07 08:44:51;;;;;;;16.63;9.60;;;3.50;99.90;;;;;;4964813;28;20199;-79
2022/03/07 08:47:17;;;;;;;15.20;9.50;;;4.90;99.90;;;;;;4936375;28;20196;-80
2022/03/07 08:49:43;;;;;;;17.33;9.37;;;7.30;99.90;;;;;;4946195;28;20588;-79
2022/03/07 08:52:09;;;;;;;14.40;8.23;;;9.40;99.90;;;;;;4948078;28;20216;-80
2022/03/07 08:54:35;;;;;;;10.90;6.93;;;11.20;99.90;;;;;;4949668;28;20286;-80
2022/03/07 08:57:00;;;;;;;12.13;7.17;;;12.60;99.90;;;;;;4960031;28;20248;-80
2022/03/07 08:59:28;;;;;;;12.97;7.37;;;13.60;99.90;;;;;;4946605;28;20275;-80
2022/03/07 09:01:56;;;;;;;12.07;6.80;;;14.40;99.90;;;;;;4933769;28;20290;-81
2022/03/07 09:04:24;;;;;;;9.63;6.03;;;14.90;99.90;;;;;;4961041;28;20181;-81
2022/03/07 09:06:52;;;;;;;9.17;6.00;;;15.60;99.90;;;;;;4957948;28;20231;-81
2022/03/07 09:09:18;;;;;;;7.87;5.60;;;16.30;99.90;;;;;;4961816;28;20192;-81
2022/03/07 09:11:44;;;;;;;13.50;6.27;;;16.70;99.90;;;;;;4955756;28;20211;-79
2022/03/07 09:14:09;;;;;;;6.73;5.53;;;16.80;99.90;;;;;;4944149;28;20243;-80
2022/03/07 09:16:35;;;;;;;9.80;6.17;;;17.20;99.90;;;;;;4927632;28;20193;-79
2022/03/07 09:19:01;;;;;;;8.57;5.50;;;17.60;99.90;;;;;;4977938;28;20205;-79
2022/03/07 09:21:27;;;;;;;11.40;6.37;;;18.00;98.10;;;;;;4971755;28;20182;-81
2022/03/07 09:23:52;;;;;;;8.43;5.70;;;18.40;96.40;;;;;;4956684;28;20219;-80
2022/03/07 09:26:18;;;;;;;7.20;5.37;;;18.40;95.20;;;;;;4956713;28;20191;-81
2022/03/07 09:28:44;;;;;;;7.37;5.23;;;18.60;94.40;;;;;;4976999;28;20289;-80
2022/03/07 09:31:11;;;;;;;7.33;4.97;;;18.70;93.20;;;;;;4958553;28;20200;-80
2022/03/07 09:33:37;;;;;;;8.33;5.37;;;18.60;91.90;;;;;;4960987;28;20284;-80
2022/03/07 09:36:03;;;;;;;7.20;4.30;;;18.80;91.10;;;;;;4930732;28;20832;-82
2022/03/07 09:38:29;;;;;;;10.80;4.57;;;19.10;89.80;;;;;;4944350;28;20180;-79
2022/03/07 09:40:56;;;;;;;6.37;4.13;;;19.40;87.10;;;;;;4948390;28;20196;-78
2022/03/07 09:43:22;;;;;;;7.00;4.07;;;19.80;84.00;;;;;;4962409;28;20192;-80
2022/03/07 09:45:48;;;;;;;6.20;4.30;;;20.00;81.10;;;;;;4932649;28;20658;-79
2022/03/07 09:48:15;;;;;;;7.27;4.27;;;20.30;78.10;;;;;;4959877;28;20211;-81
2022/03/07 09:50:42;;;;;;;7.53;4.13;;;20.60;75.80;;;;;;4964689;28;20202;-80
2022/03/07 09:53:08;;;;;;;7.30;4.63;;;20.70;73.50;;;;;;4945077;28;20296;-79
2022/03/07 09:55:35;;;;;;;5.90;3.93;;;20.90;72.10;;;;;;4977816;28;20730;-78
2022/03/07 09:58:01;;;;;;;4.53;3.50;;;21.30;70.30;;;;;;4959305;28;20299;-80
2022/03/07 10:00:26;;;;;;;6.80;3.57;;;21.10;68.30;;;;;;4948143;28;20643;-80
2022/03/07 10:03:05;;;;;;;7.80;3.90;;;21.10;67.30;;;;;;4946098;28;20303;-80
2022/03/07 10:05:37;;;;;;;7.40;3.73;;;21.20;65.50;;;;;;4978149;28;20172;-80
2022/03/07 10:08:04;;;;;;;4.83;3.60;;;20.90;64.10;;;;;;4959578;28;20657;-80
2022/03/07 10:10:36;;;;;;;5.37;3.80;;;20.70;63.90;;;;;;4959890;28;20607;-81
2022/03/07 10:13:06;;;;;;;6.80;3.60;;;20.40;62.80;;;;;;4960703;28;20198;-80
2022/03/07 10:15:33;;;;;;;7.13;4.03;;;20.30;62.10;;;;;;4960474;28;20279;-80
2022/03/07 10:17:59;;;;;;;6.57;3.83;;;20.10;61.40;;;;;;4959605;28;20572;-80
2022/03/07 10:20:26;;;;;;;9.10;4.40;;;20.00;61.30;;;;;;4960646;28;20237;-79
2022/03/07 10:22:57;;;;;;;6.10;3.90;;;20.40;60.60;;;;;;4979789;28;20178;-79
2022/03/07 10:25:32;;;;;;;5.20;3.83;;;20.90;59.40;;;;;;4946655;28;20857;-78
2022/03/07 10:28:01;;;;;;;4.63;4.10;;;21.50;58.40;;;;;;4978921;28;20276;-80
2022/03/07 10:30:29;;;;;;;6.73;3.80;;;21.70;57.10;;;;;;4945100;28;20293;-80
2022/03/07 10:33:07;;;;;;;6.30;4.33;;;22.00;56.20;;;;;;4959845;28;20690;-80
2022/03/07 10:35:34;;;;;;;6.13;3.53;;;22.10;54.90;;;;;;4977992;28;20182;-81
2022/03/07 10:38:03;;;;;;;7.00;3.83;;;22.00;54.70;;;;;;4976607;28;20183;-80
2022/03/07 10:40:30;;;;;;;6.17;4.00;;;22.10;54.50;;;;;;4977391;28;20240;-80
2022/03/07 10:42:56;;;;;;;5.40;3.83;;;22.50;53.60;;;;;;4916680;28;20280;-79
2022/03/07 10:45:22;;;;;;;6.57;4.17;;;23.00;52.40;;;;;;4958455;28;20238;-80
2022/03/07 10:47:57;;;;;;;5.10;3.90;;;23.60;51.50;;;;;;4960632;28;20251;-80
2022/03/07 10:50:25;;;;;;;6.73;4.33;;;22.60;49.50;;;;;;4975526;28;20185;-80
2022/03/07 10:53:05;;;;;;;6.63;4.47;;;20.40;50.00;;;;;;4978437;28;20225;-79
2022/03/07 10:55:32;;;;;;;7.80;3.97;;;18.00;52.10;;;;;;4945262;28;20283;-78
2022/03/07 10:58:12;;;;;;;6.87;4.63;;;17.50;54.60;;;;;;4960632;28;20242;-78
2022/03/07 11:00:56;;;;;;;5.67;4.10;;;18.50;55.40;;;;;;4960154;28;20684;-80
2022/03/07 11:03:29;;;;;;;6.50;4.10;;;19.80;54.60;;;;;;4957811;28;20306;-80
2022/03/07 11:05:56;;;;;;;5.37;4.33;;;20.90;53.40;;;;;;4963308;28;20198;-79
2022/03/07 11:08:22;;;;;;;6.23;4.10;;;21.50;52.50;;;;;;4960622;28;20312;-79
2022/03/07 11:10:53;;;;;;;6.83;3.83;;;22.20;51.30;;;;;;4962818;28;21032;-80
2022/03/07 11:13:26;;;;;;;6.07;3.53;;;22.50;50.50;;;;;;4977075;28;20226;-79
2022/03/07 11:15:55;;;;;;;5.47;3.60;;;23.10;49.80;;;;;;4979213;28;20184;-79
2022/03/07 11:18:22;;;;;;;4.90;3.70;;;23.10;48.30;;;;;;4944128;28;20475;-80
2022/03/07 11:20:48;;;;;;;4.67;3.30;;;22.90;47.70;;;;;;4957955;28;20311;-81
2022/03/07 11:23:20;;;;;;;4.87;3.53;;;22.60;47.80;;;;;;4960475;28;20284;-81
2022/03/07 11:25:48;;;;;;;6.20;3.70;;;23.10;47.80;;;;;;4945274;28;20181;-82
2022/03/07 11:28:13;;;;;;;4.23;3.30;;;23.70;46.70;;;;;;4976676;28;20205;-80
2022/03/07 11:30:42;;;;;;;3.80;3.17;;;23.90;46.20;;;;;;4943721;28;20198;-80
2022/03/07 11:33:16;;;;;;;5.40;3.37;;;24.30;45.70;;;;;;4961513;28;20213;-79
2022/03/07 11:35:47;;;;;;;7.17;3.03;;;24.70;44.60;;;;;;4956877;28;20493;-81
2022/03/07 11:38:25;;;;;;;4.90;3.10;;;24.90;43.70;;;;;;4976467;28;20183;-80
2022/03/07 11:41:06;;;;;;;4.67;3.27;;;24.90;43.20;;;;;;4975885;28;20196;-80
2022/03/07 11:43:34;;;;;;;5.00;3.30;;;25.10;42.30;;;;;;4976701;28;20736;-80
2022/03/07 11:46:02;;;;;;;4.03;3.33;;;24.90;42.30;;;;;;4960551;28;20193;-81
2022/03/07 11:48:45;;;;;;;5.57;3.50;;;24.60;42.20;;;;;;4959633;28;20196;-80
2022/03/07 11:51:23;;;;;;;3.43;2.63;;;24.40;41.50;;;;;;4977121;28;20177;-80
2022/03/07 11:53:51;;;;;;;4.07;3.30;;;23.80;41.40;;;;;;4979545;28;20265;-79
2022/03/07 11:56:23;;;;;;;3.90;3.20;;;22.70;41.30;;;;;;4943519;28;20196;-81
2022/03/07 11:58:55;;;;;;;5.53;3.73;;;20.60;42.20;;;;;;4975042;28;20288;-78
2022/03/07 12:01:24;;;;;;;5.60;3.50;;;18.40;43.90;;;;;;4959823;28;20188;-80
2022/03/07 12:03:51;;;;;;;6.80;3.70;;;16.40;45.60;;;;;;4976074;28;20218;-79
2022/03/07 12:06:19;;;;;;;7.30;4.03;;;15.00;47.50;;;;;;4959108;28;20758;-80
2022/03/07 12:08:50;;;;;;;6.17;4.00;;;13.90;48.90;;;;;;4944458;28;20276;-80
2022/03/07 12:11:29;;;;;;;5.73;4.40;;;13.10;50.30;;;;;;4942648;28;20795;-80
2022/03/07 12:14:02;;;;;;;6.50;3.93;;;12.30;51.80;;;;;;4961499;28;20226;-80
2022/03/07 12:16:31;;;;;;;6.33;4.30;;;11.90;52.20;;;;;;4943787;28;20598;-80
2022/03/07 12:19:19;;;;;;;7.07;4.40;;;12.00;53.70;;;;;;4960441;28;20613;-79
2022/03/07 12:21:47;;;;;;;6.77;4.53;;;12.80;54.40;;;;;;4962023;28;20338;-80
2022/03/07 12:24:15;;;;;;;6.90;4.30;;;13.40;54.20;;;;;;4959825;28;20492;-79
2022/03/07 12:26:53;;;;;;;9.67;4.63;;;13.50;53.20;;;;;;4960464;28;20191;-79
2022/03/07 12:29:21;;;;;;;9.60;5.33;;;12.70;53.40;;;;;;4976188;28;20294;-78
2022/03/07 12:32:03;;;;;;;7.47;4.90;;;12.10;54.20;;;;;;4961051;28;20297;-80
2022/03/07 12:34:32;;;;;;;7.13;4.77;;;11.60;55.20;;;;;;4958056;28;20286;-79
2022/03/07 12:37:12;;;;;;;7.10;4.80;;;11.30;55.60;;;;;;4974636;28;20216;-80
2022/03/07 12:39:45;;;;;;;6.60;4.67;;;10.80;56.50;;;;;;4960744;28;20212;-78
2022/03/07 12:42:12;;;;;;;7.83;5.17;;;10.60;57.20;;;;;;4976801;28;20193;-80
2022/03/07 12:44:38;;;;;;;9.00;5.03;;;10.40;57.40;;;;;;4958385;28;20229;-78
2022/03/07 12:47:05;;;;;;;6.87;4.90;;;10.20;58.00;;;;;;4959289;28;20980;-80
2022/03/07 12:49:31;;;;;;;8.77;5.73;;;10.00;58.50;;;;;;4958778;28;22157;-80
2022/03/07 12:51:57;;;;;;;7.97;5.70;;;9.90;59.00;;;;;;4944318;28;20221;-80